Terminal Aerodrome Forecast
Issued by NWS

Current Version | Previous Version | Graphics & Text | Print | Product List | Glossary On
Versions: 1 2 3 4 5 6 7 8 9 10 11 12 13 14 15 16 17 18 19 20 21 22 23 24 25 26 27 28
000
FTUS41 KILN 241136
TAFLUK
TAF
KLUK 241136Z 2412/2512 03008KT P6SM VCSH SCT009 OVC015
      TEMPO 2412/2416 4SM -RA BR SCT015 OVC030
     FM242000 09011KT P6SM VCSH OVC025
     FM250000 15009KT 5SM -RA OVC025
     FM250200 14009KT 4SM -SHRA VCTS OVC020CB
     FM250700 21015G26KT 5SM -SHRA VCTS OVC040CB
     FM250900 23015G28KT 5SM -SHRA VCTS BKN035CB
     FM251100 25015G22KT P6SM BKN070=

USA.gov is the U.S. government's official web portal to all federal, state and local government web resources and services.